sensor_id;sensor_type;location;lat;lon;timestamp;pressure;altitude;pressure_sealevel;temperature;humidity
5651;BME280;40241;52.684;9.758;2023-12-20T00:01:19;100890.78;;;7.11;67.34
5651;BME280;40241;52.684;9.758;2023-12-20T00:03:44;100886.47;;;7.04;67.35
5651;BME280;40241;52.684;9.758;2023-12-20T00:06:10;100888.97;;;7.02;67.38
5651;BME280;40241;52.684;9.758;2023-12-20T00:08:35;100887.66;;;6.97;67.44
5651;BME280;40241;52.684;9.758;2023-12-20T00:11:01;100893.94;;;6.98;67.46
5651;BME280;40241;52.684;9.758;2023-12-20T00:13:26;100886.41;;;6.98;67.32
5651;BME280;40241;52.684;9.758;2023-12-20T00:15:51;100884.16;;;6.97;67.35
5651;BME280;40241;52.684;9.758;2023-12-20T00:18:16;100882.66;;;6.96;67.42
5651;BME280;40241;52.684;9.758;2023-12-20T00:20:42;100883.13;;;6.94;67.35
5651;BME280;40241;52.684;9.758;2023-12-20T00:23:07;100881.63;;;6.93;67.41
5651;BME280;40241;52.684;9.758;2023-12-20T00:25:33;100878.59;;;6.91;67.35
5651;BME280;40241;52.684;9.758;2023-12-20T00:27:59;100882.59;;;6.90;67.35
5651;BME280;40241;52.684;9.758;2023-12-20T00:30:25;100875.78;;;6.86;67.45
5651;BME280;40241;52.684;9.758;2023-12-20T00:32:50;100874.28;;;6.85;67.33
5651;BME280;40241;52.684;9.758;2023-12-20T00:35:16;100878.75;;;6.82;67.40
5651;BME280;40241;52.684;9.758;2023-12-20T00:37:42;100889.50;;;6.80;67.58
5651;BME280;40241;52.684;9.758;2023-12-20T00:40:08;100887.97;;;6.79;67.26
5651;BME280;40241;52.684;9.758;2023-12-20T00:42:34;100890.44;;;6.77;67.33
5651;BME280;40241;52.684;9.758;2023-12-20T00:45:00;100881.16;;;6.75;67.27
5651;BME280;40241;52.684;9.758;2023-12-20T00:47:26;100878.16;;;6.73;67.20
5651;BME280;40241;52.684;9.758;2023-12-20T00:49:51;100875.91;;;6.71;67.33
5651;BME280;40241;52.684;9.758;2023-12-20T00:52:17;100885.09;;;6.68;67.38
5651;BME280;40241;52.684;9.758;2023-12-20T00:54:43;100887.84;;;6.68;67.26
5651;BME280;40241;52.684;9.758;2023-12-20T00:57:08;100891.59;;;6.65;67.14
5651;BME280;40241;52.684;9.758;2023-12-20T00:59:34;100887.03;;;6.62;67.35
5651;BME280;40241;52.684;9.758;2023-12-20T01:01:59;100884.47;;;6.59;67.24
5651;BME280;40241;52.684;9.758;2023-12-20T01:04:25;100898.91;;;6.54;67.18
5651;BME280;40241;52.684;9.758;2023-12-20T01:06:51;100886.88;;;6.51;67.29
5651;BME280;40241;52.684;9.758;2023-12-20T01:09:17;100887.38;;;6.50;67.28
5651;BME280;40241;52.684;9.758;2023-12-20T01:11:43;100890.59;;;6.48;67.25
5651;BME280;40241;52.684;9.758;2023-12-20T01:14:08;100892.59;;;6.48;67.25
5651;BME280;40241;52.684;9.758;2023-12-20T01:16:34;100884.53;;;6.44;67.26
5651;BME280;40241;52.684;9.758;2023-12-20T01:18:59;100884.50;;;6.39;67.20
5651;BME280;40241;52.684;9.758;2023-12-20T01:21:25;100886.97;;;6.37;67.37
5651;BME280;40241;52.684;9.758;2023-12-20T01:23:50;100891.16;;;6.32;67.30
5651;BME280;40241;52.684;9.758;2023-12-20T01:26:16;100887.66;;;6.31;67.38
5651;BME280;40241;52.684;9.758;2023-12-20T01:28:42;100883.88;;;6.29;67.49
5651;BME280;40241;52.684;9.758;2023-12-20T01:31:07;100877.81;;;6.25;67.29
5651;BME280;40241;52.684;9.758;2023-12-20T01:33:32;100883.81;;;6.23;67.50
5651;BME280;40241;52.684;9.758;2023-12-20T01:35:58;100885.25;;;6.19;67.50
5651;BME280;40241;52.684;9.758;2023-12-20T01:38:23;100883.00;;;6.17;67.39
5651;BME280;40241;52.684;9.758;2023-12-20T01:40:48;100880.69;;;6.16;67.42
5651;BME280;40241;52.684;9.758;2023-12-20T01:43:13;100875.69;;;6.14;67.33
5651;BME280;40241;52.684;9.758;2023-12-20T01:45:39;100888.88;;;6.10;67.48
5651;BME280;40241;52.684;9.758;2023-12-20T01:48:05;100895.88;;;6.11;67.62
5651;BME280;40241;52.684;9.758;2023-12-20T01:50:32;100896.34;;;6.10;67.50
5651;BME280;40241;52.684;9.758;2023-12-20T01:53:00;100894.38;;;6.10;67.54
5651;BME280;40241;52.684;9.758;2023-12-20T01:55:27;100896.63;;;6.12;67.38
5651;BME280;40241;52.684;9.758;2023-12-20T01:57:55;100892.84;;;6.09;67.39
5651;BME280;40241;52.684;9.758;2023-12-20T02:00:22;100890.59;;;6.08;67.48
5651;BME280;40241;52.684;9.758;2023-12-20T02:02:53;100881.59;;;6.07;67.33
5651;BME280;40241;52.684;9.758;2023-12-20T02:05:18;100879.81;;;6.04;67.46
5651;BME280;40241;52.684;9.758;2023-12-20T02:07:44;100873.56;;;6.04;67.49
5651;BME280;40241;52.684;9.758;2023-12-20T02:10:09;100870.53;;;6.02;67.53
5651;BME280;40241;52.684;9.758;2023-12-20T02:12:35;100865.50;;;6.00;67.40
5651;BME280;40241;52.684;9.758;2023-12-20T02:15:01;100861.75;;;5.98;67.44
5651;BME280;40241;52.684;9.758;2023-12-20T02:17:27;100852.94;;;5.94;67.46
5651;BME280;40241;52.684;9.758;2023-12-20T02:19:52;100851.44;;;5.93;67.49
5651;BME280;40241;52.684;9.758;2023-12-20T02:22:18;100853.91;;;5.91;67.51
5651;BME280;40241;52.684;9.758;2023-12-20T02:24:43;100862.06;;;5.85;67.52
5651;BME280;40241;52.684;9.758;2023-12-20T02:27:08;100855.53;;;5.83;67.50
5651;BME280;40241;52.684;9.758;2023-12-20T02:29:35;100853.81;;;5.85;67.56
5651;BME280;40241;52.684;9.758;2023-12-20T02:32:00;100853.09;;;5.85;67.57
5651;BME280;40241;52.684;9.758;2023-12-20T02:34:26;100845.59;;;5.85;67.53
5651;BME280;40241;52.684;9.758;2023-12-20T02:36:51;100843.06;;;5.82;67.47
5651;BME280;40241;52.684;9.758;2023-12-20T02:39:16;100854.53;;;5.80;67.56
5651;BME280;40241;52.684;9.758;2023-12-20T02:41:42;100848.75;;;5.78;67.55
5651;BME280;40241;52.684;9.758;2023-12-20T02:44:07;100847.72;;;5.76;67.62
5651;BME280;40241;52.684;9.758;2023-12-20T02:46:33;100840.44;;;5.73;67.63
5651;BME280;40241;52.684;9.758;2023-12-20T02:48:58;100839.94;;;5.74;67.67
5651;BME280;40241;52.684;9.758;2023-12-20T02:51:23;100837.41;;;5.71;67.59
5651;BME280;40241;52.684;9.758;2023-12-20T02:53:49;100839.88;;;5.69;67.70
5651;BME280;40241;52.684;9.758;2023-12-20T02:56:14;100834.38;;;5.69;67.71
5651;BME280;40241;52.684;9.758;2023-12-20T02:58:40;100821.59;;;5.66;67.67
5651;BME280;40241;52.684;9.758;2023-12-20T03:01:05;100817.09;;;5.63;67.56
5651;BME280;40241;52.684;9.758;2023-12-20T03:03:31;100814.06;;;5.61;67.79
5651;BME280;40241;52.684;9.758;2023-12-20T03:05:56;100818.78;;;5.60;67.74
5651;BME280;40241;52.684;9.758;2023-12-20T03:08:22;100820.78;;;5.60;67.86
5651;BME280;40241;52.684;9.758;2023-12-20T03:10:47;100814.53;;;5.59;67.83
5651;BME280;40241;52.684;9.758;2023-12-20T03:13:12;100811.78;;;5.59;67.88
5651;BME280;40241;52.684;9.758;2023-12-20T03:15:38;100807.53;;;5.58;67.74
5651;BME280;40241;52.684;9.758;2023-12-20T03:18:03;100797.50;;;5.55;67.74
5651;BME280;40241;52.684;9.758;2023-12-20T03:20:28;100793.53;;;5.56;67.76
5651;BME280;40241;52.684;9.758;2023-12-20T03:22:56;100797.50;;;5.55;67.80
5651;BME280;40241;52.684;9.758;2023-12-20T03:25:21;100795.53;;;5.55;67.64
5651;BME280;40241;52.684;9.758;2023-12-20T03:27:46;100791.53;;;5.56;67.86
5651;BME280;40241;52.684;9.758;2023-12-20T03:30:12;100788.34;;;5.58;67.90
5651;BME280;40241;52.684;9.758;2023-12-20T03:32:38;100785.59;;;5.58;67.85
5651;BME280;40241;52.684;9.758;2023-12-20T03:35:03;100786.34;;;5.59;67.88
5651;BME280;40241;52.684;9.758;2023-12-20T03:37:29;100792.13;;;5.61;67.87
5651;BME280;40241;52.684;9.758;2023-12-20T03:39:54;100775.66;;;5.61;67.74
5651;BME280;40241;52.684;9.758;2023-12-20T03:42:20;100782.09;;;5.57;67.77
5651;BME280;40241;52.684;9.758;2023-12-20T03:44:45;100786.03;;;5.56;67.81
5651;BME280;40241;52.684;9.758;2023-12-20T03:47:10;100785.78;;;5.54;67.73
5651;BME280;40241;52.684;9.758;2023-12-20T03:49:36;100784.56;;;5.55;67.90
5651;BME280;40241;52.684;9.758;2023-12-20T03:52:02;100785.31;;;5.56;67.85
5651;BME280;40241;52.684;9.758;2023-12-20T03:54:28;100777.81;;;5.56;67.95
5651;BME280;40241;52.684;9.758;2023-12-20T03:56:53;100779.34;;;5.57;67.92
5651;BME280;40241;52.684;9.758;2023-12-20T03:59:18;100771.09;;;5.57;67.95
5651;BME280;40241;52.684;9.758;2023-12-20T04:01:44;100771.38;;;5.60;68.00
5651;BME280;40241;52.684;9.758;2023-12-20T04:04:10;100771.66;;;5.62;67.90
5651;BME280;40241;52.684;9.758;2023-12-20T04:06:36;100771.66;;;5.62;67.76
5651;BME280;40241;52.684;9.758;2023-12-20T04:09:01;100766.16;;;5.62;67.89
5651;BME280;40241;52.684;9.758;2023-12-20T04:11:26;100765.88;;;5.60;67.97
5651;BME280;40241;52.684;9.758;2023-12-20T04:13:51;100772.63;;;5.59;67.91
5651;BME280;40241;52.684;9.758;2023-12-20T04:16:17;100763.16;;;5.60;68.04
5651;BME280;40241;52.684;9.758;2023-12-20T04:18:42;100768.91;;;5.62;67.94
5651;BME280;40241;52.684;9.758;2023-12-20T04:21:07;100773.19;;;5.63;68.01
5651;BME280;40241;52.684;9.758;2023-12-20T04:23:33;100762.47;;;5.65;68.11
5651;BME280;40241;52.684;9.758;2023-12-20T04:25:58;100754.69;;;5.63;67.97
5651;BME280;40241;52.684;9.758;2023-12-20T04:28:23;100749.97;;;5.64;68.01
5651;BME280;40241;52.684;9.758;2023-12-20T04:30:49;100748.00;;;5.64;68.01
5651;BME280;40241;52.684;9.758;2023-12-20T04:33:14;100740.50;;;5.65;68.06
5651;BME280;40241;52.684;9.758;2023-12-20T04:35:39;100742.00;;;5.66;68.11
5651;BME280;40241;52.684;9.758;2023-12-20T04:38:06;100747.31;;;5.69;68.07
5651;BME280;40241;52.684;9.758;2023-12-20T04:40:32;100745.59;;;5.72;67.92
5651;BME280;40241;52.684;9.758;2023-12-20T04:42:57;100741.59;;;5.73;67.88
5651;BME280;40241;52.684;9.758;2023-12-20T04:45:22;100731.13;;;5.71;67.87
5651;BME280;40241;52.684;9.758;2023-12-20T04:47:50;100734.63;;;5.72;67.99
5651;BME280;40241;52.684;9.758;2023-12-20T04:50:15;100749.84;;;5.73;68.03
5651;BME280;40241;52.684;9.758;2023-12-20T04:52:41;100738.88;;;5.73;67.93
5651;BME280;40241;52.684;9.758;2023-12-20T04:55:06;100738.38;;;5.74;67.97
5651;BME280;40241;52.684;9.758;2023-12-20T04:57:32;100744.13;;;5.76;68.14
5651;BME280;40241;52.684;9.758;2023-12-20T04:59:57;100742.41;;;5.79;68.08
5651;BME280;40241;52.684;9.758;2023-12-20T05:02:22;100742.41;;;5.79;68.12
5651;BME280;40241;52.684;9.758;2023-12-20T05:04:48;100734.94;;;5.79;68.18
5651;BME280;40241;52.684;9.758;2023-12-20T05:07:13;100732.97;;;5.80;68.07
5651;BME280;40241;52.684;9.758;2023-12-20T05:09:39;100739.22;;;5.80;68.15
5651;BME280;40241;52.684;9.758;2023-12-20T05:12:04;100740.22;;;5.83;67.97
5651;BME280;40241;52.684;9.758;2023-12-20T05:14:30;100738.72;;;5.82;68.08
5651;BME280;40241;52.684;9.758;2023-12-20T05:16:55;100739.28;;;5.86;68.09
5651;BME280;40241;52.684;9.758;2023-12-20T05:19:21;100729.81;;;5.87;67.99
5651;BME280;40241;52.684;9.758;2023-12-20T05:21:47;100725.53;;;5.86;67.91
5651;BME280;40241;52.684;9.758;2023-12-20T05:24:12;100723.56;;;5.86;68.12
5651;BME280;40241;52.684;9.758;2023-12-20T05:26:37;100728.03;;;5.84;68.00
5651;BME280;40241;52.684;9.758;2023-12-20T05:29:03;100722.78;;;5.86;68.08
5651;BME280;40241;52.684;9.758;2023-12-20T05:31:28;100721.31;;;5.85;68.03
5651;BME280;40241;52.684;9.758;2023-12-20T05:33:53;100732.56;;;5.87;68.05
5651;BME280;40241;52.684;9.758;2023-12-20T05:36:19;100724.59;;;5.89;68.00
5651;BME280;40241;52.684;9.758;2023-12-20T05:38:44;100724.59;;;5.89;67.99
5651;BME280;40241;52.684;9.758;2023-12-20T05:41:10;100718.88;;;5.92;68.00
5651;BME280;40241;52.684;9.758;2023-12-20T05:43:35;100728.63;;;5.93;67.74
5651;BME280;40241;52.684;9.758;2023-12-20T05:46:01;100729.38;;;5.94;67.91
5651;BME280;40241;52.684;9.758;2023-12-20T05:48:26;100724.38;;;5.92;67.90
5651;BME280;40241;52.684;9.758;2023-12-20T05:50:52;100727.38;;;5.94;67.89
5651;BME280;40241;52.684;9.758;2023-12-20T05:53:18;100735.63;;;5.94;67.88
5651;BME280;40241;52.684;9.758;2023-12-20T05:55:43;100741.88;;;5.95;67.79
5651;BME280;40241;52.684;9.758;2023-12-20T05:58:08;100728.91;;;5.95;68.13
5651;BME280;40241;52.684;9.758;2023-12-20T06:00:33;100730.91;;;5.95;67.82
5651;BME280;40241;52.684;9.758;2023-12-20T06:02:59;100729.09;;;5.92;67.92
5651;BME280;40241;52.684;9.758;2023-12-20T06:05:24;100733.38;;;5.93;67.74
5651;BME280;40241;52.684;9.758;2023-12-20T06:07:49;100726.84;;;5.90;67.81
5651;BME280;40241;52.684;9.758;2023-12-20T06:10:16;100715.09;;;5.90;67.80
5651;BME280;40241;52.684;9.758;2023-12-20T06:12:41;100710.59;;;5.87;67.73
5651;BME280;40241;52.684;9.758;2023-12-20T06:15:07;100703.59;;;5.86;67.86
5651;BME280;40241;52.684;9.758;2023-12-20T06:17:33;100714.34;;;5.89;67.90
5651;BME280;40241;52.684;9.758;2023-12-20T06:20:00;100724.88;;;5.91;67.89
5651;BME280;40241;52.684;9.758;2023-12-20T06:22:25;100717.38;;;5.91;67.73
5651;BME280;40241;52.684;9.758;2023-12-20T06:24:50;100714.63;;;5.91;67.70
5651;BME280;40241;52.684;9.758;2023-12-20T06:27:16;100706.88;;;5.90;67.69
5651;BME280;40241;52.684;9.758;2023-12-20T06:29:41;100712.91;;;5.94;67.52
5651;BME280;40241;52.684;9.758;2023-12-20T06:32:07;100710.91;;;5.94;67.54
5651;BME280;40241;52.684;9.758;2023-12-20T06:34:33;100712.16;;;5.93;67.67
5651;BME280;40241;52.684;9.758;2023-12-20T06:36:58;100706.19;;;5.95;67.71
5651;BME280;40241;52.684;9.758;2023-12-20T06:39:23;100713.88;;;5.91;67.53
5651;BME280;40241;52.684;9.758;2023-12-20T06:41:49;100709.06;;;5.86;67.76
5651;BME280;40241;52.684;9.758;2023-12-20T06:44:14;100708.81;;;5.84;67.87
5651;BME280;40241;52.684;9.758;2023-12-20T06:46:39;100702.34;;;5.87;67.88
5651;BME280;40241;52.684;9.758;2023-12-20T06:49:05;100704.13;;;5.90;67.86
5651;BME280;40241;52.684;9.758;2023-12-20T06:51:30;100707.91;;;5.92;67.67
5651;BME280;40241;52.684;9.758;2023-12-20T06:53:56;100709.41;;;5.93;67.65
5651;BME280;40241;52.684;9.758;2023-12-20T06:56:21;100698.44;;;5.93;67.71
5651;BME280;40241;52.684;9.758;2023-12-20T06:58:47;100697.69;;;5.93;67.71
5651;BME280;40241;52.684;9.758;2023-12-20T07:01:15;100692.19;;;5.93;67.68
5651;BME280;40241;52.684;9.758;2023-12-20T07:03:41;100686.69;;;5.93;67.79
5651;BME280;40241;52.684;9.758;2023-12-20T07:06:07;100673.44;;;5.91;67.84
5651;BME280;40241;52.684;9.758;2023-12-20T07:08:33;100670.41;;;5.89;67.74
5651;BME280;40241;52.684;9.758;2023-12-20T07:10:58;100681.19;;;5.93;67.87
5651;BME280;40241;52.684;9.758;2023-12-20T07:13:23;100666.47;;;5.96;67.65
5651;BME280;40241;52.684;9.758;2023-12-20T07:15:50;100669.22;;;5.96;67.60
5651;BME280;40241;52.684;9.758;2023-12-20T07:18:15;100677.47;;;5.96;67.60
5651;BME280;40241;52.684;9.758;2023-12-20T07:20:40;100667.50;;;5.98;67.55
5651;BME280;40241;52.684;9.758;2023-12-20T07:23:06;100678.22;;;5.96;67.48
5651;BME280;40241;52.684;9.758;2023-12-20T07:25:31;100672.47;;;5.94;67.52
5651;BME280;40241;52.684;9.758;2023-12-20T07:27:58;100668.50;;;5.95;67.53
5651;BME280;40241;52.684;9.758;2023-12-20T07:30:23;100659.50;;;5.95;67.60
5651;BME280;40241;52.684;9.758;2023-12-20T07:32:48;100666.97;;;5.94;67.47
5651;BME280;40241;52.684;9.758;2023-12-20T07:35:15;100659.22;;;5.93;67.63
5651;BME280;40241;52.684;9.758;2023-12-20T07:37:40;100660.72;;;5.94;67.59
5651;BME280;40241;52.684;9.758;2023-12-20T07:40:06;100663.75;;;5.96;67.52
5651;BME280;40241;52.684;9.758;2023-12-20T07:42:32;100671.50;;;5.97;67.54
5651;BME280;40241;52.684;9.758;2023-12-20T07:44:58;100670.25;;;5.98;67.55
5651;BME280;40241;52.684;9.758;2023-12-20T07:47:23;100676.50;;;5.99;67.57
5651;BME280;40241;52.684;9.758;2023-12-20T07:49:50;100675.03;;;5.98;67.44
5651;BME280;40241;52.684;9.758;2023-12-20T07:52:17;100670.00;;;5.96;67.45
5651;BME280;40241;52.684;9.758;2023-12-20T07:54:43;100665.53;;;5.99;67.57
5651;BME280;40241;52.684;9.758;2023-12-20T07:57:08;100661.56;;;6.00;67.56
5651;BME280;40241;52.684;9.758;2023-12-20T07:59:34;100661.81;;;6.02;67.51
5651;BME280;40241;52.684;9.758;2023-12-20T08:01:59;100684.53;;;6.02;67.47
5651;BME280;40241;52.684;9.758;2023-12-20T08:04:24;100672.31;;;6.03;67.42
5651;BME280;40241;52.684;9.758;2023-12-20T08:06:50;100660.56;;;6.03;67.52
5651;BME280;40241;52.684;9.758;2023-12-20T08:09:15;100660.84;;;6.05;67.51
5651;BME280;40241;52.684;9.758;2023-12-20T08:11:47;100663.59;;;6.05;67.45
5651;BME280;40241;52.684;9.758;2023-12-20T08:14:13;100648.63;;;6.06;67.50
5651;BME280;40241;52.684;9.758;2023-12-20T08:16:38;100661.09;;;6.07;67.63
5651;BME280;40241;52.684;9.758;2023-12-20T08:19:04;100655.88;;;6.09;67.47
5651;BME280;40241;52.684;9.758;2023-12-20T08:21:29;100648.41;;;6.09;67.49
5651;BME280;40241;52.684;9.758;2023-12-20T08:23:55;100645.66;;;6.09;67.60
5651;BME280;40241;52.684;9.758;2023-12-20T08:26:20;100644.69;;;6.12;67.50
5651;BME280;40241;52.684;9.758;2023-12-20T08:28:47;100646.44;;;6.15;67.40
5651;BME280;40241;52.684;9.758;2023-12-20T08:31:16;100645.72;;;6.15;67.30
5651;BME280;40241;52.684;9.758;2023-12-20T08:33:45;100640.69;;;6.13;67.37
5651;BME280;40241;52.684;9.758;2023-12-20T08:36:11;100635.97;;;6.14;67.46
5651;BME280;40241;52.684;9.758;2023-12-20T08:38:37;100640.22;;;6.15;67.43
5651;BME280;40241;52.684;9.758;2023-12-20T08:41:02;100636.22;;;6.16;67.55
5651;BME280;40241;52.684;9.758;2023-12-20T08:43:30;100637.25;;;6.18;67.43
5651;BME280;40241;52.684;9.758;2023-12-20T08:45:55;100629.28;;;6.20;67.55
5651;BME280;40241;52.684;9.758;2023-12-20T08:48:21;100623.28;;;6.22;67.43
5651;BME280;40241;52.684;9.758;2023-12-20T08:50:46;100618.09;;;6.24;67.43
5651;BME280;40241;52.684;9.758;2023-12-20T08:53:13;100628.09;;;6.27;67.35
5651;BME280;40241;52.684;9.758;2023-12-20T08:55:40;100626.84;;;6.28;67.39
5651;BME280;40241;52.684;9.758;2023-12-20T08:58:06;100611.84;;;6.23;67.25
5651;BME280;40241;52.684;9.758;2023-12-20T09:00:32;100604.06;;;6.22;67.39
5651;BME280;40241;52.684;9.758;2023-12-20T09:02:57;100606.59;;;6.25;67.48
5651;BME280;40241;52.684;9.758;2023-12-20T09:05:22;100606.63;;;6.31;67.42
5651;BME280;40241;52.684;9.758;2023-12-20T09:07:48;100617.88;;;6.33;67.32
5651;BME280;40241;52.684;9.758;2023-12-20T09:10:13;100610.91;;;6.32;67.35
5651;BME280;40241;52.684;9.758;2023-12-20T09:12:38;100601.13;;;6.31;67.41
5651;BME280;40241;52.684;9.758;2023-12-20T09:15:06;100595.66;;;6.31;67.36
5651;BME280;40241;52.684;9.758;2023-12-20T09:17:31;100591.88;;;6.28;67.50
5651;BME280;40241;52.684;9.758;2023-12-20T09:19:56;100590.38;;;6.27;67.50
5651;BME280;40241;52.684;9.758;2023-12-20T09:22:22;100587.41;;;6.31;67.48
5651;BME280;40241;52.684;9.758;2023-12-20T09:24:48;100594.41;;;6.32;67.38
5651;BME280;40241;52.684;9.758;2023-12-20T09:27:13;100588.69;;;6.36;67.49
5651;BME280;40241;52.684;9.758;2023-12-20T09:29:38;100593.72;;;6.37;67.36
5651;BME280;40241;52.684;9.758;2023-12-20T09:32:04;100590.47;;;6.39;67.47
5651;BME280;40241;52.684;9.758;2023-12-20T09:34:29;100575.00;;;6.41;67.33
5651;BME280;40241;52.684;9.758;2023-12-20T09:36:55;100568.25;;;6.42;67.36
5651;BME280;40241;52.684;9.758;2023-12-20T09:39:20;100570.25;;;6.42;67.35
5651;BME280;40241;52.684;9.758;2023-12-20T09:41:56;100569.78;;;6.43;67.19
5651;BME280;40241;52.684;9.758;2023-12-20T09:44:24;100576.50;;;6.42;67.41
5651;BME280;40241;52.684;9.758;2023-12-20T09:46:50;100566.53;;;6.45;67.42
5651;BME280;40241;52.684;9.758;2023-12-20T09:49:18;100580.03;;;6.48;67.34
5651;BME280;40241;52.684;9.758;2023-12-20T09:51:46;100562.31;;;6.49;67.30
5651;BME280;40241;52.684;9.758;2023-12-20T09:54:15;100559.81;;;6.51;67.28
5651;BME280;40241;52.684;9.758;2023-12-20T09:56:40;100563.59;;;6.54;67.16
5651;BME280;40241;52.684;9.758;2023-12-20T09:59:06;100557.84;;;6.57;67.22
5651;BME280;40241;52.684;9.758;2023-12-20T10:01:32;100549.13;;;6.59;67.12
5651;BME280;40241;52.684;9.758;2023-12-20T10:04:00;100546.84;;;6.57;67.02
5651;BME280;40241;52.684;9.758;2023-12-20T10:06:25;100552.84;;;6.56;67.12
5651;BME280;40241;52.684;9.758;2023-12-20T10:08:50;100546.84;;;6.57;67.22
5651;BME280;40241;52.684;9.758;2023-12-20T10:11:16;100552.91;;;6.61;67.16
5651;BME280;40241;52.684;9.758;2023-12-20T10:13:42;100560.44;;;6.66;67.08
5651;BME280;40241;52.684;9.758;2023-12-20T10:16:08;100544.94;;;6.63;67.08
5651;BME280;40241;52.684;9.758;2023-12-20T10:18:33;100554.41;;;6.62;67.20
5651;BME280;40241;52.684;9.758;2023-12-20T10:20:59;100537.38;;;6.58;67.21
5651;BME280;40241;52.684;9.758;2023-12-20T10:23:25;100541.63;;;6.59;67.21
5651;BME280;40241;52.684;9.758;2023-12-20T10:26:00;100541.19;;;6.61;67.29
5651;BME280;40241;52.684;9.758;2023-12-20T10:28:26;100540.38;;;6.60;67.29
5651;BME280;40241;52.684;9.758;2023-12-20T10:30:54;100538.69;;;6.63;67.26
5651;BME280;40241;52.684;9.758;2023-12-20T10:33:25;100542.19;;;6.63;67.24
5651;BME280;40241;52.684;9.758;2023-12-20T10:35:52;100539.72;;;6.65;67.36
5651;BME280;40241;52.684;9.758;2023-12-20T10:38:17;100537.22;;;6.67;67.44
5651;BME280;40241;52.684;9.758;2023-12-20T10:40:45;100535.75;;;6.72;67.16
5651;BME280;40241;52.684;9.758;2023-12-20T10:43:11;100522.97;;;6.74;67.26
5651;BME280;40241;52.684;9.758;2023-12-20T10:45:36;100522.25;;;6.74;67.19
5651;BME280;40241;52.684;9.758;2023-12-20T10:48:01;100520.50;;;6.76;67.30
5651;BME280;40241;52.684;9.758;2023-12-20T10:50:27;100520.50;;;6.76;67.25
5651;BME280;40241;52.684;9.758;2023-12-20T10:52:57;100515.75;;;6.77;67.25
5651;BME280;40241;52.684;9.758;2023-12-20T10:55:23;100515.53;;;6.80;67.21
5651;BME280;40241;52.684;9.758;2023-12-20T10:57:54;100530.25;;;6.77;67.35
5651;BME280;40241;52.684;9.758;2023-12-20T11:00:25;100518.25;;;6.75;67.35
5651;BME280;40241;52.684;9.758;2023-12-20T11:02:51;100520.50;;;6.76;67.29
5651;BME280;40241;52.684;9.758;2023-12-20T11:10:37;100562.00;;;6.78;67.10
5651;BME280;40241;52.684;9.758;2023-12-20T11:13:20;100577.97;;;6.74;67.67
5651;BME280;40241;52.684;9.758;2023-12-20T11:15:48;100583.94;;;6.67;67.57
5651;BME280;40241;52.684;9.758;2023-12-20T11:18:14;100598.34;;;6.57;67.40
5651;BME280;40241;52.684;9.758;2023-12-20T11:20:41;100572.78;;;6.45;67.32
5651;BME280;40241;52.684;9.758;2023-12-20T11:23:10;100546.94;;;6.31;67.15
5651;BME280;40241;52.684;9.758;2023-12-20T11:25:56;100561.59;;;6.17;66.94
5651;BME280;40241;52.684;9.758;2023-12-20T11:28:24;100567.03;;;6.12;67.07
5651;BME280;40241;52.684;9.758;2023-12-20T11:30:54;100563.25;;;6.09;67.09
5651;BME280;40241;52.684;9.758;2023-12-20T11:33:24;100549.06;;;6.11;66.99
5651;BME280;40241;52.684;9.758;2023-12-20T11:35:51;100537.56;;;6.12;66.93
5651;BME280;40241;52.684;9.758;2023-12-20T11:38:19;100535.59;;;6.13;66.85
5651;BME280;40241;52.684;9.758;2023-12-20T11:40:48;100519.31;;;6.09;66.72
5651;BME280;40241;52.684;9.758;2023-12-20T11:43:30;100525.31;;;6.08;66.45
5651;BME280;40241;52.684;9.758;2023-12-20T11:46:02;100543.56;;;6.11;66.79
5651;BME280;40241;52.684;9.758;2023-12-20T11:48:28;100542.38;;;6.17;66.60
5651;BME280;40241;52.684;9.758;2023-12-20T11:50:53;100536.63;;;6.21;66.56
5651;BME280;40241;52.684;9.758;2023-12-20T11:53:18;100519.91;;;6.24;66.78
5651;BME280;40241;52.684;9.758;2023-12-20T11:55:48;100533.19;;;6.26;66.36
5651;BME280;40241;52.684;9.758;2023-12-20T11:58:13;100523.69;;;6.27;66.60
5651;BME280;40241;52.684;9.758;2023-12-20T12:00:41;100519.72;;;6.33;66.63
5651;BME280;40241;52.684;9.758;2023-12-20T12:03:06;100522.97;;;6.32;66.49
5651;BME280;40241;52.684;9.758;2023-12-20T12:05:31;100520.00;;;6.36;66.43
5651;BME280;40241;52.684;9.758;2023-12-20T12:07:58;100521.50;;;6.37;66.35
5651;BME280;40241;52.684;9.758;2023-12-20T12:10:23;100527.97;;;6.33;66.29
5651;BME280;40241;52.684;9.758;2023-12-20T12:12:49;100529.69;;;6.31;66.38
5651;BME280;40241;52.684;9.758;2023-12-20T12:15:14;100530.72;;;6.33;66.64
5651;BME280;40241;52.684;9.758;2023-12-20T12:17:40;100536.28;;;6.39;66.57
5651;BME280;40241;52.684;9.758;2023-12-20T12:20:06;100539.75;;;6.40;66.40
5651;BME280;40241;52.684;9.758;2023-12-20T12:22:31;100531.03;;;6.41;66.50
5651;BME280;40241;52.684;9.758;2023-12-20T12:24:59;100538.03;;;6.42;66.25
5651;BME280;40241;52.684;9.758;2023-12-20T12:27:27;100522.06;;;6.46;66.50
5651;BME280;40241;52.684;9.758;2023-12-20T12:30:03;100527.81;;;6.48;66.31
5651;BME280;40241;52.684;9.758;2023-12-20T12:32:29;100531.81;;;6.47;66.40
5651;BME280;40241;52.684;9.758;2023-12-20T12:34:55;100523.06;;;6.43;66.20
5651;BME280;40241;52.684;9.758;2023-12-20T12:37:20;100519.53;;;6.37;66.19
5651;BME280;40241;52.684;9.758;2023-12-20T12:39:48;100518.50;;;6.35;66.29
5651;BME280;40241;52.684;9.758;2023-12-20T12:42:13;100525.03;;;6.37;66.37
5651;BME280;40241;52.684;9.758;2023-12-20T12:44:39;100521.28;;;6.40;66.34
5651;BME280;40241;52.684;9.758;2023-12-20T12:47:04;100519.28;;;6.41;66.25
5651;BME280;40241;52.684;9.758;2023-12-20T12:49:31;100519.53;;;6.43;66.30
5651;BME280;40241;52.684;9.758;2023-12-20T12:51:57;100525.53;;;6.41;66.32
5651;BME280;40241;52.684;9.758;2023-12-20T12:54:23;100523.81;;;6.44;66.23
5651;BME280;40241;52.684;9.758;2023-12-20T12:56:49;100524.81;;;6.46;66.17
5651;BME280;40241;52.684;9.758;2023-12-20T12:59:16;100511.56;;;6.45;66.05
5651;BME280;40241;52.684;9.758;2023-12-20T13:01:41;100516.81;;;6.43;66.21
5651;BME280;40241;52.684;9.758;2023-12-20T13:04:06;100522.78;;;6.41;66.08
5651;BME280;40241;52.684;9.758;2023-12-20T13:06:38;100521.78;;;6.44;66.27
5651;BME280;40241;52.684;9.758;2023-12-20T13:09:04;100523.56;;;6.47;65.98